Time;durP1;ratioP1;P1;durP2;ratioP2;P2;SDS_P1;SDS_P2;PMS_P1;PMS_P2;Temp;Humidity;BMP_temperature;BMP_pressure;BME280_temperature;BME280_humidity;BME280_pressure;Samples;Min_cycle;Max_cycle;Signal;HPM_P1;HPM_P2
2022/11/27 00:01:23;;;;;;;130.95;43.22;;;;;;;4.82;100.00;101800.56;5076543;28;20085;-73
2022/11/27 00:03:49;;;;;;;125.95;43.60;;;;;;;4.82;100.00;101783.56;5095158;28;20038;-73
2022/11/27 00:06:19;;;;;;;111.53;38.50;;;;;;;4.80;100.00;101789.66;5094339;28;20036;-73
2022/11/27 00:08:45;;;;;;;112.22;39.47;;;;;;;4.77;100.00;101786.84;5094174;28;20024;-72
2022/11/27 00:11:13;;;;;;;108.30;37.35;;;;;;;4.77;100.00;101798.16;5095533;28;20077;-72
2022/11/27 00:13:40;;;;;;;109.22;38.60;;;;;;;4.76;100.00;101788.88;5094192;28;20055;-73
2022/11/27 00:16:07;;;;;;;112.57;38.05;;;;;;;4.75;100.00;101792.13;5095619;28;20020;-72
2022/11/27 00:18:35;;;;;;;99.75;38.38;;;;;;;4.77;100.00;101792.50;5094444;28;20032;-73
2022/11/27 00:21:05;;;;;;;105.63;35.75;;;;;;;4.80;100.00;101800.19;5094306;28;20032;-74
2022/11/27 00:23:34;;;;;;;110.03;36.65;;;;;;;4.81;100.00;101799.75;5094238;28;20052;-73
2022/11/27 00:26:08;;;;;;;111.68;38.92;;;;;;;4.88;100.00;101807.38;5094009;28;20024;-72
2022/11/27 00:28:34;;;;;;;110.28;39.33;;;;;;;4.88;100.00;101802.53;5095147;28;20028;-73
2022/11/27 00:31:02;;;;;;;123.47;40.13;;;;;;;4.91;100.00;101813.00;5076277;28;20571;-74
2022/11/27 00:33:27;;;;;;;108.10;40.00;;;;;;;4.90;100.00;101805.78;5094022;28;20024;-73
2022/11/27 00:36:08;;;;;;;114.80;38.67;;;;;;;4.96;100.00;101816.66;5094254;28;20456;-73
2022/11/27 00:38:34;;;;;;;105.75;35.78;;;;;;;4.92;100.00;101816.66;5092833;28;20023;-73
2022/11/27 00:41:15;;;;;;;102.85;34.40;;;;;;;4.91;100.00;101815.84;5091719;28;20036;-73
2022/11/27 00:43:41;;;;;;;105.90;35.75;;;;;;;4.92;100.00;101822.31;5092807;28;20392;-72
2022/11/27 00:46:08;;;;;;;125.93;38.33;;;;;;;4.94;100.00;101817.06;5092845;28;20492;-72
2022/11/27 00:48:33;;;;;;;107.05;37.85;;;;;;;4.96;100.00;101822.31;5094744;28;20036;-73
2022/11/27 00:51:05;;;;;;;112.70;35.70;;;;;;;4.94;100.00;101817.06;5092841;28;20028;-73
2022/11/27 00:53:53;;;;;;;104.90;37.03;;;;;;;4.97;100.00;101821.88;5092333;28;20039;-74
2022/11/27 00:56:22;;;;;;;119.65;38.42;;;;;;;4.96;100.00;101808.16;5092192;28;20076;-73
2022/11/27 00:58:49;;;;;;;110.78;38.65;;;;;;;4.99;100.00;101819.44;5093438;28;20492;-73
2022/11/27 01:01:29;;;;;;;114.40;37.95;;;;;;;4.98;100.00;101820.66;5092208;28;20027;-73
2022/11/27 01:03:56;;;;;;;109.43;37.75;;;;;;;5.01;100.00;101816.19;5092000;28;20404;-73
2022/11/27 01:06:23;;;;;;;111.88;38.13;;;;;;;5.01;100.00;101810.50;5093163;28;20546;-74
2022/11/27 01:08:49;;;;;;;111.15;38.60;;;;;;;4.95;100.00;101807.34;5094594;28;20027;-73
2022/11/27 01:11:19;;;;;;;108.70;38.10;;;;;;;4.96;100.00;101811.75;5092327;28;20477;-73
2022/11/27 01:13:45;;;;;;;116.80;38.42;;;;;;;4.92;100.00;101811.81;5092989;28;20143;-74
2022/11/27 01:16:18;;;;;;;114.22;38.75;;;;;;;4.95;100.00;101813.00;5076443;28;20445;-73
2022/11/27 01:18:46;;;;;;;125.68;41.00;;;;;;;4.97;100.00;101819.03;5076373;28;20459;-73
2022/11/27 01:21:15;;;;;;;109.28;36.10;;;;;;;5.01;100.00;101816.97;5094285;28;20113;-73
2022/11/27 01:23:40;;;;;;;122.68;39.70;;;;;;;5.01;100.00;101819.81;5092968;28;20096;-73
2022/11/27 01:26:10;;;;;;;117.65;37.47;;;;;;;5.08;100.00;101818.97;5092698;28;20028;-74
2022/11/27 01:28:38;;;;;;;109.10;37.20;;;;;;;5.08;100.00;101813.28;5092685;28;20032;-74
2022/11/27 01:31:08;;;;;;;113.03;37.20;;;;;;;5.12;100.00;101816.91;5076205;28;20024;-74
2022/11/27 01:33:35;;;;;;;125.43;43.13;;;;;;;5.07;100.00;101814.50;5076605;28;20481;-73
2022/11/27 01:36:02;;;;;;;128.63;40.75;;;;;;;5.03;100.00;101813.75;5092803;28;20479;-73
2022/11/27 01:38:29;;;;;;;132.25;40.95;;;;;;;5.02;100.00;101812.94;5092515;28;20024;-72
2022/11/27 01:41:07;;;;;;;118.30;40.35;;;;;;;4.93;100.00;101799.25;5059259;28;20039;-73
2022/11/27 01:43:52;;;;;;;117.80;39.53;;;;;;;4.92;100.00;101797.63;5075767;28;20508;-73
2022/11/27 01:46:37;;;;;;;135.02;41.80;;;;;;;4.86;100.00;101799.31;5092866;28;20098;-73
2022/11/27 01:49:08;;;;;;;124.25;41.00;;;;;;;4.82;100.00;101807.03;5092751;28;20031;-74
2022/11/27 01:51:53;;;;;;;123.03;42.15;;;;;;;4.80;100.00;101806.66;5094015;28;20039;-74
2022/11/27 01:54:23;;;;;;;127.45;39.90;;;;;;;4.84;100.00;101809.44;5094365;28;20069;-74
2022/11/27 01:56:52;;;;;;;143.48;42.03;;;;;;;4.83;100.00;101802.97;5059266;28;20066;-73
2022/11/27 01:59:27;;;;;;;143.27;42.08;;;;;;;4.79;100.00;101801.41;5075269;28;20020;-72
2022/11/27 02:01:52;;;;;;;129.20;42.55;;;;;;;4.74;100.00;101810.34;5092169;28;20500;-73
2022/11/27 02:04:18;;;;;;;126.28;43.97;;;;;;;4.67;100.00;101802.69;5093911;28;20085;-73
2022/11/27 02:06:45;;;;;;;124.10;41.22;;;;;;;4.68;100.00;101809.97;5093129;28;20400;-73
2022/11/27 02:09:10;;;;;;;131.02;42.97;;;;;;;4.65;100.00;101801.50;5091908;28;20036;-72
2022/11/27 02:12:01;;;;;;;124.15;43.67;;;;;;;4.71;100.00;101811.19;5092221;28;20354;-74
2022/11/27 02:14:48;;;;;;;130.05;44.65;;;;;;;4.71;100.00;101814.78;5090173;28;20028;-73
2022/11/27 02:17:35;;;;;;;117.30;42.35;;;;;;;4.75;100.00;101809.94;5092099;28;20028;-73
2022/11/27 02:20:29;;;;;;;138.82;42.08;;;;;;;4.82;100.00;101806.22;5093446;28;20028;-74
2022/11/27 02:23:19;;;;;;;130.63;41.53;;;;;;;4.83;100.00;101800.16;5093129;28;20457;-75
2022/11/27 02:25:48;;;;;;;131.63;43.90;;;;;;;4.85;100.00;101805.41;5092298;28;20377;-74
2022/11/27 02:28:28;;;;;;;162.30;45.38;;;;;;;4.87;100.00;101811.44;5090855;28;20024;-74
2022/11/27 02:31:10;;;;;;;114.03;42.80;;;;;;;4.85;100.00;101811.88;5092082;28;20051;-73
2022/11/27 02:33:48;;;;;;;140.55;42.58;;;;;;;4.84;100.00;101821.59;5092138;28;20028;-73
2022/11/27 02:36:18;;;;;;;131.00;40.97;;;;;;;4.80;100.00;101800.19;5090924;28;20299;-73
2022/11/27 02:38:50;;;;;;;121.15;41.58;;;;;;;4.95;100.00;101821.50;5090777;28;20365;-75
2022/11/27 02:41:24;;;;;;;126.43;44.55;;;;;;;4.93;100.00;101806.94;5090861;28;20031;-74
2022/11/27 02:43:50;;;;;;;134.60;42.88;;;;;;;5.02;100.00;101820.63;5092150;28;20035;-73
2022/11/27 02:46:22;;;;;;;130.02;42.13;;;;;;;5.07;100.00;101823.00;5090803;28;20047;-74
2022/11/27 02:48:50;;;;;;;134.18;42.78;;;;;;;5.10;100.00;101814.50;5074611;28;20032;-74
2022/11/27 02:51:21;;;;;;;149.02;45.65;;;;;;;5.12;100.00;101811.22;5077803;28;20044;-74
2022/11/27 02:53:58;;;;;;;140.98;43.35;;;;;;;5.10;100.00;101802.34;5095543;28;20024;-73
2022/11/27 02:56:27;;;;;;;133.13;43.25;;;;;;;5.04;100.00;101804.03;5095936;28;20073;-73
2022/11/27 02:59:03;;;;;;;124.75;42.58;;;;;;;4.96;100.00;101802.50;5062172;28;20106;-73
2022/11/27 03:01:44;;;;;;;136.00;44.28;;;;;;;4.94;100.00;101809.38;5095846;28;20027;-73
2022/11/27 03:04:15;;;;;;;137.45;42.45;;;;;;;4.94;100.00;101812.19;5095669;28;20072;-73
2022/11/27 03:06:46;;;;;;;115.05;40.97;;;;;;;4.96;100.00;101799.66;5095504;28;20040;-72
2022/11/27 03:09:16;;;;;;;164.13;46.47;;;;;;;4.96;100.00;101805.31;5095766;28;20035;-72
2022/11/27 03:11:42;;;;;;;188.13;46.85;;;;;;;4.91;100.00;101795.22;5095586;28;20031;-72
2022/11/27 03:14:09;;;;;;;168.88;46.78;;;;;;;4.91;100.00;101800.88;5095740;28;20024;-72
2022/11/27 03:16:56;;;;;;;151.57;42.78;;;;;;;4.92;100.00;101791.16;5095635;28;20032;-72
2022/11/27 03:19:27;;;;;;;132.88;43.40;;;;;;;4.96;100.00;101799.66;5097043;28;20031;-72
2022/11/27 03:21:59;;;;;;;158.82;45.45;;;;;;;4.99;100.00;101799.63;5096865;28;20032;-73
2022/11/27 03:24:24;;;;;;;126.68;41.65;;;;;;;5.00;100.00;101797.59;5078357;28;20039;-72
2022/11/27 03:26:51;;;;;;;163.23;45.45;;;;;;;5.02;100.00;101806.47;5094588;28;20036;-72
2022/11/27 03:29:49;;;;;;;154.35;46.95;;;;;;;5.02;100.00;101804.44;5095120;28;20058;-73
2022/11/27 03:32:15;;;;;;;154.32;48.60;;;;;;;5.04;100.00;101801.19;5087268;28;20040;-72
2022/11/27 03:34:42;;;;;;;143.23;44.35;;;;;;;5.05;100.00;101792.28;5078208;28;20073;-72
2022/11/27 03:37:07;;;;;;;153.38;45.42;;;;;;;5.10;100.00;101788.19;5096478;28;20020;-74
2022/11/27 03:39:35;;;;;;;149.75;47.13;;;;;;;5.11;100.00;101792.63;5096462;28;20024;-71
2022/11/27 03:42:24;;;;;;;151.50;47.63;;;;;;;5.11;100.00;101790.59;5094947;28;20020;-74
2022/11/27 03:45:16;;;;;;;150.85;48.22;;;;;;;5.13;100.00;101787.34;5096255;28;20472;-71
2022/11/27 03:48:06;;;;;;;154.65;46.30;;;;;;;5.13;100.00;101779.66;5094912;28;20420;-72
2022/11/27 03:50:50;;;;;;;152.73;45.80;;;;;;;5.15;100.00;101790.56;5096278;28;20479;-73
2022/11/27 03:53:22;;;;;;;125.43;42.83;;;;;;;5.15;100.00;101779.25;5094268;28;20020;-73
2022/11/27 03:55:59;;;;;;;134.60;41.63;;;;;;;5.13;100.00;101773.19;5094489;28;20024;-73
2022/11/27 03:58:33;;;;;;;131.38;43.88;;;;;;;5.13;100.00;101776.81;5093592;28;20027;-73
2022/11/27 04:00:59;;;;;;;111.07;39.38;;;;;;;5.07;100.00;101766.34;5076427;28;20027;-73
2022/11/27 04:03:27;;;;;;;131.55;39.97;;;;;;;5.07;100.00;101778.50;5093737;28;20031;-73
2022/11/27 04:05:52;;;;;;;134.52;43.05;;;;;;;5.03;100.00;101776.91;5095676;28;20483;-73
2022/11/27 04:08:18;;;;;;;140.18;42.50;;;;;;;5.03;100.00;101774.09;5095278;28;20052;-73
2022/11/27 04:10:44;;;;;;;120.18;39.25;;;;;;;5.01;100.00;101765.19;5095452;28;20024;-74
2022/11/27 04:13:09;;;;;;;101.38;36.78;;;;;;;5.01;100.00;101779.34;5095439;28;20070;-73
2022/11/27 04:15:34;;;;;;;119.20;38.85;;;;;;;5.00;100.00;101772.91;5094497;28;20115;-73
2022/11/27 04:18:00;;;;;;;124.60;39.50;;;;;;;4.92;100.00;101760.00;5095418;28;20039;-73
2022/11/27 04:20:25;;;;;;;133.98;42.30;;;;;;;4.90;100.00;101753.97;5077222;28;20020;-72
2022/11/27 04:22:50;;;;;;;124.85;40.03;;;;;;;4.91;100.00;101764.88;5094037;28;20373;-74
2022/11/27 04:25:16;;;;;;;120.85;38.90;;;;;;;4.89;100.00;101767.34;5094008;28;20020;-73
2022/11/27 04:27:41;;;;;;;138.30;38.15;;;;;;;4.87;100.00;101766.94;5093799;28;20040;-72
2022/11/27 04:30:07;;;;;;;109.22;38.28;;;;;;;4.88;100.00;101759.25;5095187;28;20549;-73
2022/11/27 04:32:33;;;;;;;120.20;38.08;;;;;;;4.85;100.00;101755.25;5095112;28;20569;-72
2022/11/27 04:34:58;;;;;;;160.63;42.47;;;;;;;4.86;100.00;101756.00;5095024;28;20103;-72
2022/11/27 04:37:23;;;;;;;123.15;38.50;;;;;;;4.82;100.00;101746.75;5095105;28;20024;-72
2022/11/27 04:39:49;;;;;;;130.90;37.33;;;;;;;4.80;100.00;101747.19;5095004;28;20069;-72
2022/11/27 04:42:14;;;;;;;124.60;36.53;;;;;;;4.81;100.00;101747.97;5094789;28;20020;-74
2022/11/27 04:44:39;;;;;;;131.50;37.55;;;;;;;4.85;100.00;101754.44;5093918;28;20020;-72
2022/11/27 04:47:05;;;;;;;114.88;39.38;;;;;;;4.89;100.00;101758.84;5095076;28;20059;-73
2022/11/27 04:49:30;;;;;;;114.72;35.20;;;;;;;4.90;100.00;101754.78;5093722;28;20024;-74
2022/11/27 04:51:55;;;;;;;105.45;35.35;;;;;;;4.89;100.00;101749.53;5093446;28;20525;-72
2022/11/27 04:54:21;;;;;;;107.22;33.55;;;;;;;4.87;100.00;101751.97;5094750;28;20494;-73
2022/11/27 04:56:46;;;;;;;126.05;36.13;;;;;;;4.87;100.00;101747.09;5093280;28;20016;-74
2022/11/27 04:59:11;;;;;;;128.73;34.03;;;;;;;4.86;100.00;101751.16;5094660;28;20024;-72
2022/11/27 05:01:37;;;;;;;117.05;35.55;;;;;;;4.75;100.00;101735.50;5094643;28;20019;-72
2022/11/27 05:04:02;;;;;;;116.78;35.33;;;;;;;4.83;100.00;101752.00;5094541;28;20550;-74
2022/11/27 05:06:28;;;;;;;107.88;32.50;;;;;;;4.83;100.00;101742.69;5076046;28;20070;-73
2022/11/27 05:08:58;;;;;;;119.30;34.90;;;;;;;4.87;100.00;101752.78;5094468;28;20380;-73
2022/11/27 05:11:24;;;;;;;109.32;34.70;;;;;;;4.93;100.00;101751.09;5093633;28;20105;-73
2022/11/27 05:14:13;;;;;;;118.53;39.78;;;;;;;4.95;100.00;101747.88;5076272;28;20024;-73
2022/11/27 05:16:35;;;;;;;122.93;36.90;;;;;;;5.00;100.00;101749.44;5093043;28;20020;-73
2022/11/27 05:19:00;;;;;;;105.05;37.05;;;;;;;5.00;100.00;101755.09;5092954;28;20027;-74
2022/11/27 05:21:26;;;;;;;123.15;36.85;;;;;;;4.97;100.00;101756.72;5094093;28;20024;-73
2022/11/27 05:23:51;;;;;;;115.22;37.17;;;;;;;4.94;100.00;101760.41;5093091;28;20095;-74
2022/11/27 05:26:16;;;;;;;105.38;34.22;;;;;;;4.97;100.00;101772.91;5094057;28;20488;-74
2022/11/27 05:28:42;;;;;;;101.53;34.25;;;;;;;5.00;100.00;101772.09;5094115;28;20040;-74
2022/11/27 05:31:07;;;;;;;109.95;36.28;;;;;;;5.03;100.00;101769.22;5093134;28;20106;-74
2022/11/27 05:33:33;;;;;;;96.32;34.17;;;;;;;5.04;100.00;101768.00;5094680;28;20028;-73
2022/11/27 05:35:58;;;;;;;103.07;32.38;;;;;;;5.06;100.00;101773.22;5094111;28;20039;-74
2022/11/27 05:38:23;;;;;;;99.65;33.30;;;;;;;5.04;100.00;101770.84;5093816;28;20024;-74
2022/11/27 05:40:49;;;;;;;91.53;31.73;;;;;;;5.05;100.00;101775.28;5094103;28;20538;-74
2022/11/27 05:43:14;;;;;;;97.50;33.08;;;;;;;5.07;100.00;101770.00;5093627;28;20020;-73
2022/11/27 05:45:39;;;;;;;93.57;32.90;;;;;;;5.11;100.00;101786.94;5092715;28;20028;-73
2022/11/27 05:48:05;;;;;;;88.00;31.20;;;;;;;5.13;100.00;101787.34;5093917;28;20453;-73
2022/11/27 05:50:30;;;;;;;93.13;31.17;;;;;;;5.11;100.00;101779.25;5093756;28;20451;-73
2022/11/27 05:52:55;;;;;;;86.18;32.47;;;;;;;5.10;100.00;101786.16;5092438;28;20060;-74
2022/11/27 05:55:21;;;;;;;81.68;31.10;;;;;;;5.10;100.00;101780.50;5092668;28;20530;-73
2022/11/27 05:57:46;;;;;;;87.65;29.65;;;;;;;5.09;100.00;101781.72;5092367;28;20103;-74
2022/11/27 06:00:13;;;;;;;106.20;34.00;;;;;;;5.09;100.00;101776.06;5092392;28;20028;-74
2022/11/27 06:02:38;;;;;;;92.75;32.72;;;;;;;5.11;100.00;101784.13;5093528;28;20081;-74
2022/11/27 06:05:04;;;;;;;118.55;36.63;;;;;;;5.10;100.00;101788.19;5093556;28;20024;-74
2022/11/27 06:07:30;;;;;;;93.78;32.42;;;;;;;5.07;100.00;101784.16;5092065;28;20040;-73
2022/11/27 06:09:55;;;;;;;110.30;33.20;;;;;;;5.06;100.00;101782.53;5093392;28;20039;-73
2022/11/27 06:12:20;;;;;;;88.22;29.60;;;;;;;5.01;100.00;101785.00;5092137;28;20028;-74
2022/11/27 06:14:46;;;;;;;94.38;28.65;;;;;;;4.92;100.00;101782.66;5091698;28;20028;-74
2022/11/27 06:17:14;;;;;;;79.15;30.38;;;;;;;4.84;100.00;101787.59;5092455;28;20752;-75
2022/11/27 06:19:39;;;;;;;96.15;29.75;;;;;;;4.77;100.00;101781.97;5091307;28;20020;-75
2022/11/27 06:22:05;;;;;;;68.38;30.63;;;;;;;4.80;100.00;101783.19;5089785;28;20085;-74
2022/11/27 06:24:31;;;;;;;82.03;30.63;;;;;;;4.83;100.00;101791.66;5096280;28;20035;-74
2022/11/27 06:26:57;;;;;;;66.85;27.75;;;;;;;4.81;100.00;101791.25;5097398;28;20070;-74
2022/11/27 06:29:25;;;;;;;70.88;27.10;;;;;;;4.79;100.00;101793.72;5097472;28;20488;-73
2022/11/27 06:31:51;;;;;;;79.97;29.50;;;;;;;4.78;100.00;101799.78;5097746;28;20042;-74
2022/11/27 06:34:25;;;;;;;66.20;26.95;;;;;;;4.76;100.00;101800.19;5097560;28;20111;-73
2022/11/27 06:36:51;;;;;;;75.85;28.77;;;;;;;4.78;100.00;101803.41;5096217;28;20468;-74
2022/11/27 06:39:17;;;;;;;87.60;32.67;;;;;;;4.76;100.00;101805.84;5097796;28;20032;-73
2022/11/27 06:41:44;;;;;;;79.25;31.60;;;;;;;4.76;100.00;101802.25;5097052;28;20024;-73
2022/11/27 06:44:10;;;;;;;83.78;30.98;;;;;;;4.77;100.00;101810.31;5079176;28;20047;-73
2022/11/27 06:46:37;;;;;;;88.22;30.80;;;;;;;4.79;100.00;101807.88;5097069;28;20028;-73
2022/11/27 06:49:04;;;;;;;98.60;33.40;;;;;;;4.78;100.00;101811.91;5096018;28;20035;-74
2022/11/27 06:51:31;;;;;;;111.38;33.80;;;;;;;4.77;100.00;101810.31;5097227;28;20028;-73
2022/11/27 06:53:59;;;;;;;95.65;32.17;;;;;;;4.77;100.00;101804.63;5096232;28;20476;-73
2022/11/27 06:56:27;;;;;;;99.45;33.80;;;;;;;4.79;100.00;101813.53;5062433;28;20361;-73
2022/11/27 06:58:59;;;;;;;127.63;37.40;;;;;;;4.79;100.00;101813.53;5079160;28;20040;-73
2022/11/27 07:01:28;;;;;;;102.75;34.97;;;;;;;4.79;100.00;101807.06;5095855;28;20387;-74
2022/11/27 07:03:53;;;;;;;99.60;32.33;;;;;;;4.79;100.00;101813.53;5079039;28;20093;-73
2022/11/27 07:06:22;;;;;;;73.25;31.25;;;;;;;4.80;100.00;101809.50;5095203;28;20369;-73
2022/11/27 07:08:50;;;;;;;86.05;30.55;;;;;;;4.84;100.00;101803.78;5095675;28;20036;-73
2022/11/27 07:11:26;;;;;;;85.32;32.10;;;;;;;4.86;100.00;101807.00;5096953;28;20024;-72
2022/11/27 07:13:55;;;;;;;73.55;29.23;;;;;;;4.87;100.00;101811.44;5078565;28;20044;-73
2022/11/27 07:16:21;;;;;;;80.30;30.85;;;;;;;4.92;100.00;101811.81;5096632;28;20430;-73
2022/11/27 07:18:50;;;;;;;76.22;26.98;;;;;;;4.97;100.00;101815.41;5095288;28;20118;-72
2022/11/27 07:21:16;;;;;;;66.30;25.42;;;;;;;5.00;100.00;101820.25;5095735;28;20059;-71
2022/11/27 07:23:42;;;;;;;61.22;25.42;;;;;;;5.01;100.00;101816.19;5095637;28;20059;-71
2022/11/27 07:26:19;;;;;;;61.45;23.98;;;;;;;5.02;100.00;101809.28;5095404;28;20053;-72
2022/11/27 07:28:46;;;;;;;66.50;24.35;;;;;;;5.03;100.00;101808.88;5095190;28;20081;-72
2022/11/27 07:31:15;;;;;;;65.97;25.25;;;;;;;5.10;100.00;101796.69;5095505;28;20046;-72
2022/11/27 07:33:40;;;;;;;57.22;23.90;;;;;;;5.15;100.00;101794.22;5095209;28;20035;-71
2022/11/27 07:36:11;;;;;;;63.30;25.13;;;;;;;5.24;100.00;101797.38;5095588;28;20452;-72
2022/11/27 07:38:36;;;;;;;59.45;26.17;;;;;;;5.29;100.00;101791.25;5096395;28;20046;-71
2022/11/27 07:41:22;;;;;;;53.35;22.95;;;;;;;5.47;100.00;101798.75;5095366;28;20138;-72
2022/11/27 07:43:49;;;;;;;55.13;23.95;;;;;;;5.48;100.00;101794.69;5094213;28;20043;-72
2022/11/27 07:46:21;;;;;;;53.15;21.88;;;;;;;5.54;100.00;101798.69;5096051;28;20023;-71
2022/11/27 07:48:49;;;;;;;47.10;22.05;;;;;;;5.61;100.00;101792.91;5077475;28;20346;-73
2022/11/27 07:51:17;;;;;;;47.85;20.40;;;;;;;5.68;100.00;101798.53;5093952;28;20077;-73
2022/11/27 07:53:44;;;;;;;44.97;22.30;;;;;;;5.77;100.00;101795.97;5095793;28;20485;-75
2022/11/27 07:56:14;;;;;;;45.53;21.52;;;;;;;5.80;100.00;101787.41;5094620;28;20024;-74
2022/11/27 07:58:40;;;;;;;50.67;21.30;;;;;;;5.77;100.00;101788.28;5095725;28;20020;-75
2022/11/27 08:01:09;;;;;;;44.40;20.52;;;;;;;5.81;100.00;101791.06;5076676;28;20031;-77
2022/11/27 08:03:35;;;;;;;45.05;20.35;;;;;;;5.81;100.00;101786.19;5094121;28;20027;-74
2022/11/27 08:06:00;;;;;;;40.22;19.55;;;;;;;5.84;100.00;101795.91;5095437;28;20573;-74
2022/11/27 08:08:26;;;;;;;41.10;19.10;;;;;;;5.84;100.00;101798.75;5094632;28;20134;-75
2022/11/27 08:10:53;;;;;;;41.60;21.13;;;;;;;5.86;100.00;101793.44;5072092;28;20059;-76
2022/11/27 08:13:19;;;;;;;42.58;19.88;;;;;;;5.85;100.00;101788.97;5091659;28;20400;-76
2022/11/27 08:15:46;;;;;;;46.80;21.73;;;;;;;5.87;100.00;101786.53;5095692;28;20096;-73
2022/11/27 08:18:13;;;;;;;41.40;20.35;;;;;;;5.98;100.00;101780.72;5095268;28;20465;-75
2022/11/27 08:20:59;;;;;;;42.17;21.02;;;;;;;6.16;100.00;101784.94;5093537;28;20028;-75
2022/11/27 08:23:26;;;;;;;51.00;23.52;;;;;;;6.21;100.00;101767.44;5094040;28;20035;-76
2022/11/27 08:25:51;;;;;;;49.47;23.15;;;;;;;6.47;100.00;101779.25;5093501;28;20036;-74
2022/11/27 08:28:18;;;;;;;54.15;22.65;;;;;;;6.59;100.00;101779.47;5095061;28;20024;-74
2022/11/27 08:30:59;;;;;;;48.70;22.17;;;;;;;6.72;100.00;101778.88;5093936;28;20024;-75
2022/11/27 08:33:25;;;;;;;47.38;20.90;;;;;;;6.73;100.00;101772.78;5093929;28;20028;-74
2022/11/27 08:35:51;;;;;;;43.92;19.58;;;;;;;6.79;100.00;101781.59;5093723;28;20389;-74
2022/11/27 08:38:18;;;;;;;37.08;16.88;;;;;;;6.80;100.00;101775.47;5095315;28;20024;-75
2022/11/27 08:40:43;;;;;;;38.83;18.08;;;;;;;6.80;100.00;101784.00;5093913;28;20070;-75
2022/11/27 08:43:10;;;;;;;42.72;18.95;;;;;;;6.80;100.00;101780.34;5095005;28;20031;-74
2022/11/27 08:45:38;;;;;;;46.22;19.05;;;;;;;6.87;100.00;101783.09;5093537;28;20110;-75
2022/11/27 08:48:03;;;;;;;40.08;18.88;;;;;;;6.92;100.00;101785.44;5092532;28;20040;-75
2022/11/27 08:50:29;;;;;;;44.65;19.05;;;;;;;7.01;100.00;101789.34;5094866;28;20054;-72
2022/11/27 08:52:54;;;;;;;44.30;19.92;;;;;;;7.08;100.00;101785.56;5093770;28;20044;-83
2022/11/27 08:55:19;;;;;;;42.35;18.70;;;;;;;7.26;100.00;101794.59;5094942;28;20474;-74
2022/11/27 08:57:46;;;;;;;41.83;19.23;;;;;;;7.37;100.00;101785.88;5093421;28;20028;-75
2022/11/27 09:00:11;;;;;;;39.67;19.60;;;;;;;7.47;100.00;101788.50;5094686;28;20158;-73
2022/11/27 09:02:38;;;;;;;43.22;20.38;;;;;;;7.59;100.00;101789.91;5093235;28;20074;-74
2022/11/27 09:05:05;;;;;;;41.03;19.52;;;;;;;7.71;100.00;101789.28;5094342;28;20047;-74
2022/11/27 09:07:30;;;;;;;43.35;19.33;;;;;;;7.82;100.00;101783.34;5076429;28;20070;-75
2022/11/27 09:09:55;;;;;;;40.35;20.42;;;;;;;7.93;100.00;101781.06;5092851;28;20480;-76
2022/11/27 09:12:26;;;;;;;38.97;18.10;;;;;;;8.00;100.00;101775.25;5091966;28;20068;-75
2022/11/27 09:14:54;;;;;;;41.30;18.25;;;;;;;8.07;100.00;101772.22;5093689;28;20027;-74
2022/11/27 09:17:19;;;;;;;32.67;16.42;;;;;;;8.03;100.00;101777.22;5074100;28;20164;-73
2022/11/27 09:19:44;;;;;;;31.25;16.02;;;;;;;7.94;100.00;101772.13;5093525;28;20461;-74
2022/11/27 09:22:10;;;;;;;34.15;16.30;;;;;;;7.86;100.00;101776.34;5094071;28;20050;-75
2022/11/27 09:24:35;;;;;;;35.47;16.85;;;;;;;7.79;100.00;101773.66;5092318;28;20036;-74
2022/11/27 09:27:01;;;;;;;36.65;16.42;;;;;;;7.74;100.00;101793.25;5075054;28;20031;-74
2022/11/27 09:29:26;;;;;;;34.25;17.23;;;;;;;7.62;100.00;101789.00;5093665;28;20031;-74
2022/11/27 09:31:51;;;;;;;35.30;17.30;;;;;;;7.53;100.00;101780.25;5093108;28;20036;-76
2022/11/27 09:34:17;;;;;;;37.55;18.90;;;;;;;7.46;100.00;101783.25;5092378;28;20081;-77
2022/11/27 09:36:42;;;;;;;38.35;17.13;;;;;;;7.35;100.00;101768.44;5092383;28;20119;-75
2022/11/27 09:39:08;;;;;;;36.03;16.75;;;;;;;7.27;100.00;101770.63;5091919;28;20148;-74
2022/11/27 09:41:43;;;;;;;35.83;17.38;;;;;;;7.17;100.00;101768.78;5093623;28;20023;-75
2022/11/27 09:44:22;;;;;;;34.75;16.92;;;;;;;7.07;100.00;101755.56;5075045;28;20058;-76
2022/11/27 09:46:49;;;;;;;34.10;15.88;;;;;;;7.04;100.00;101759.25;5074223;28;20098;-75
2022/11/27 09:49:28;;;;;;;34.75;16.50;;;;;;;7.01;100.00;101754.44;5093457;28;20495;-75
2022/11/27 09:52:31;;;;;;;42.72;18.10;;;;;;;6.93;100.00;101750.13;5092916;28;20040;-73
2022/11/27 09:55:02;;;;;;;31.15;15.57;;;;;;;6.92;100.00;101745.66;5095533;28;20023;-73
2022/11/27 09:57:43;;;;;;;34.92;15.75;;;;;;;6.92;100.00;101757.03;5074872;28;20376;-74
2022/11/27 10:00:17;;;;;;;40.22;18.65;;;;;;;6.97;100.00;101736.66;5092953;28;20042;-73
2022/11/27 10:02:47;;;;;;;37.50;15.95;;;;;;;7.08;100.00;101742.91;5091494;28;20031;-76
2022/11/27 10:05:24;;;;;;;41.03;17.77;;;;;;;7.21;100.00;101740.28;5090451;28;20424;-76
2022/11/27 10:08:07;;;;;;;43.10;18.90;;;;;;;7.29;100.00;101736.03;5074144;28;20051;-75
2022/11/27 10:11:03;;;;;;;43.88;19.52;;;;;;;7.28;100.00;101737.28;5071159;28;20361;-75
2022/11/27 10:13:51;;;;;;;33.08;16.90;;;;;;;7.15;100.00;101731.44;5085550;28;20465;-75
2022/11/27 10:16:37;;;;;;;39.88;17.83;;;;;;;7.28;100.00;101726.72;5091544;28;20088;-76
2022/11/27 10:19:20;;;;;;;36.42;16.98;;;;;;;7.44;100.00;101712.59;5093562;28;20453;-76
2022/11/27 10:21:58;;;;;;;34.38;15.32;;;;;;;7.58;100.00;101711.50;5093449;28;20469;-75
2022/11/27 10:24:47;;;;;;;27.48;13.98;;;;;;;7.69;100.00;101706.38;5092548;28;20057;-75
2022/11/27 10:27:48;;;;;;;30.23;15.25;;;;;;;7.72;100.00;101711.19;5072983;28;20078;-75
2022/11/27 10:30:19;;;;;;;28.67;14.85;;;;;;;7.68;100.00;101704.78;5090442;28;20070;-74
2022/11/27 10:32:49;;;;;;;28.45;14.45;;;;;;;7.69;100.00;101703.53;5090898;28;20043;-73
2022/11/27 10:35:18;;;;;;;31.95;17.05;;;;;;;7.71;100.00;101708.81;5090250;28;20530;-75
2022/11/27 10:37:48;;;;;;;29.88;14.88;;;;;;;7.73;100.00;101709.94;5090941;28;20107;-74
2022/11/27 10:40:13;;;;;;;28.58;15.48;;;;;;;7.76;100.00;101705.44;5088514;28;20490;-74
2022/11/27 10:42:49;;;;;;;28.95;14.00;;;;;;;7.76;100.00;101694.06;5089040;28;20028;-74
2022/11/27 10:45:20;;;;;;;32.05;15.48;;;;;;;7.76;100.00;101683.47;5071508;28;20028;-74
2022/11/27 10:47:47;;;;;;;30.93;15.00;;;;;;;7.91;100.00;101689.66;5089659;28;20093;-73
2022/11/27 10:50:16;;;;;;;30.15;14.27;;;;;;;8.02;100.00;101687.34;5087989;28;20334;-74
2022/11/27 10:53:04;;;;;;;26.40;13.20;;;;;;;8.03;100.00;101685.31;5072599;28;20411;-73
2022/11/27 10:55:53;;;;;;;31.88;16.35;;;;;;;7.98;100.00;101678.09;5089411;28;20050;-74
2022/11/27 10:58:33;;;;;;;33.40;15.55;;;;;;;8.08;100.00;101677.06;5090726;28;20039;-74
2022/11/27 11:01:03;;;;;;;29.75;14.50;;;;;;;8.16;100.00;101674.88;5072556;28;20111;-74
2022/11/27 11:03:28;;;;;;;28.95;14.18;;;;;;;8.14;100.00;101675.28;5089916;28;20036;-73
2022/11/27 11:05:59;;;;;;;24.67;13.50;;;;;;;8.11;100.00;101667.66;5092795;28;20036;-75
2022/11/27 11:08:27;;;;;;;29.58;15.00;;;;;;;8.15;100.00;101665.50;5074667;28;20044;-73
2022/11/27 11:11:01;;;;;;;28.58;13.88;;;;;;;8.22;100.00;101662.50;5077258;28;20028;-74
2022/11/27 11:13:29;;;;;;;29.40;14.40;;;;;;;8.38;100.00;101656.03;5096782;28;20107;-73
2022/11/27 11:16:02;;;;;;;21.35;11.80;;;;;;;8.62;100.00;101654.59;5096438;28;20031;-74
2022/11/27 11:18:30;;;;;;;23.05;11.93;;;;;;;8.81;100.00;101655.72;5095554;28;20024;-74